TIB1003 SBPV-SBBV
Flight info
| Callsign | TIB1003 |
|---|---|
| Flight time | 1h 50m |
| Altitude | 31000 |
| Route | MUPEG DCT UKBEL DCT TIPTO DCT NEVDU |
| Aircraft | E75L/M-SDE3GILORVW/S |
Departure
| Time | 2026-04-29 18:56 |
|---|---|
| Airport | Governador Jorge Teixeira de Oliveira International Airport (SBPV) |
Arrival
| Time | 2026-04-29 20:46 |
|---|---|
| Airport | Atlas Brasil Cantanhede International Airport (SBBV) |
| Time | Latitude | Longitude | Altitude | Speed | Heading |
|---|---|---|---|---|---|
| 2026-04-29 18:24 | -8.71415 | -63.89948 | 296 ft | 0 kts | 87° |
| 2026-04-29 18:39 | -8.71415 | -63.89951 | 296 ft | 2 kts | 87° |
| 2026-04-29 18:39 | -8.71419 | -63.89966 | 296 ft | 2 kts | 65° |
| 2026-04-29 18:39 | -8.71427 | -63.89980 | 296 ft | 2 kts | 49° |
| 2026-04-29 18:39 | -8.71439 | -63.89990 | 296 ft | 2 kts | 32° |
| 2026-04-29 18:40 | -8.71453 | -63.89996 | 296 ft | 2 kts | 15° |
| 2026-04-29 18:40 | -8.71468 | -63.89998 | 296 ft | 1 kts | 358° |
| 2026-04-29 18:40 | -8.71474 | -63.89998 | 296 ft | 0 kts | 353° |
| 2026-04-29 18:44 | -8.71473 | -63.89998 | 296 ft | 0 kts | 353° |
| 2026-04-29 18:45 | -8.71471 | -63.89998 | 296 ft | 0 kts | 353° |
| 2026-04-29 18:45 | -8.71465 | -63.89999 | 296 ft | 1 kts | 353° |
| 2026-04-29 18:45 | -8.71456 | -63.90000 | 296 ft | 1 kts | 354° |
| 2026-04-29 18:45 | -8.71443 | -63.90001 | 296 ft | 1 kts | 354° |
| 2026-04-29 18:46 | -8.71428 | -63.90003 | 296 ft | 2 kts | 355° |
| 2026-04-29 18:46 | -8.71410 | -63.90007 | 296 ft | 2 kts | 339° |
| 2026-04-29 18:46 | -8.71390 | -63.90015 | 296 ft | 3 kts | 340° |
| 2026-04-29 18:46 | -8.71367 | -63.90023 | 296 ft | 3 kts | 341° |
| 2026-04-29 18:47 | -8.71341 | -63.90031 | 296 ft | 4 kts | 342° |
| 2026-04-29 18:47 | -8.71312 | -63.90041 | 296 ft | 4 kts | 343° |
| 2026-04-29 18:47 | -8.71279 | -63.90051 | 296 ft | 4 kts | 338° |
| 2026-04-29 18:47 | -8.71247 | -63.90065 | 296 ft | 5 kts | 338° |
| 2026-04-29 18:48 | -8.71209 | -63.90074 | 296 ft | 5 kts | 356° |
| 2026-04-29 18:48 | -8.71168 | -63.90076 | 296 ft | 5 kts | 358° |
| 2026-04-29 18:48 | -8.71129 | -63.90077 | 296 ft | 4 kts | 358° |
| 2026-04-29 18:48 | -8.71099 | -63.90079 | 297 ft | 3 kts | 355° |
| 2026-04-29 18:49 | -8.71074 | -63.90081 | 297 ft | 3 kts | 356° |
| 2026-04-29 18:49 | -8.71049 | -63.90083 | 297 ft | 3 kts | 357° |
| 2026-04-29 18:49 | -8.71021 | -63.90084 | 297 ft | 4 kts | 358° |
| 2026-04-29 18:49 | -8.70990 | -63.90085 | 297 ft | 4 kts | 359° |
| 2026-04-29 18:50 | -8.70956 | -63.90086 | 297 ft | 4 kts | 359° |
| 2026-04-29 18:50 | -8.70919 | -63.90086 | 297 ft | 5 kts | 0° |
| 2026-04-29 18:50 | -8.70878 | -63.90085 | 297 ft | 5 kts | 1° |
| 2026-04-29 18:50 | -8.70836 | -63.90089 | 297 ft | 6 kts | 349° |
| 2026-04-29 18:51 | -8.70777 | -63.90099 | 297 ft | 9 kts | 352° |
| 2026-04-29 18:51 | -8.70694 | -63.90107 | 298 ft | 12 kts | 356° |
| 2026-04-29 18:51 | -8.70597 | -63.90109 | 299 ft | 13 kts | 359° |
| 2026-04-29 18:51 | -8.70505 | -63.90111 | 300 ft | 12 kts | 354° |
| 2026-04-29 18:52 | -8.70412 | -63.90118 | 300 ft | 12 kts | 356° |
| 2026-04-29 18:52 | -8.70320 | -63.90122 | 301 ft | 12 kts | 359° |
| 2026-04-29 18:52 | -8.70232 | -63.90129 | 301 ft | 12 kts | 354° |
| 2026-04-29 18:52 | -8.70144 | -63.90136 | 301 ft | 12 kts | 357° |
| 2026-04-29 18:53 | -8.70052 | -63.90140 | 302 ft | 12 kts | 354° |
| 2026-04-29 18:53 | -8.69971 | -63.90157 | 302 ft | 5 kts | 326° |
| 2026-04-29 18:53 | -8.69965 | -63.90161 | 302 ft | 1 kts | 323° |
| 2026-04-29 18:53 | -8.69949 | -63.90173 | 302 ft | 3 kts | 321° |
| 2026-04-29 18:54 | -8.69926 | -63.90201 | 302 ft | 5 kts | 308° |
| 2026-04-29 18:54 | -8.69899 | -63.90235 | 302 ft | 6 kts | 309° |
| 2026-04-29 18:54 | -8.69870 | -63.90270 | 302 ft | 6 kts | 310° |
| 2026-04-29 18:54 | -8.69878 | -63.90303 | 302 ft | 6 kts | 185° |
| 2026-04-29 18:55 | -8.69926 | -63.90296 | 302 ft | 9 kts | 172° |
| 2026-04-29 18:55 | -8.70149 | -63.90280 | 304 ft | 64 kts | 176° |
| 2026-04-29 18:55 | -8.70812 | -63.90241 | 301 ft | 124 kts | 177° |
| 2026-04-29 18:55 | -8.71844 | -63.90182 | 400 ft | 158 kts | 175° |
| 2026-04-29 18:56 | -8.72919 | -63.90150 | 940 ft | 157 kts | 180° |
| 2026-04-29 18:56 | -8.74139 | -63.90131 | 1075 ft | 189 kts | 171° |
| 2026-04-29 18:56 | -8.75345 | -63.89507 | 1285 ft | 210 kts | 126° |
| 2026-04-29 18:56 | -8.75767 | -63.88094 | 1789 ft | 214 kts | 80° |
| 2026-04-29 18:57 | -8.75069 | -63.86780 | 2354 ft | 218 kts | 37° |
| 2026-04-29 18:57 | -8.73753 | -63.86007 | 3026 ft | 218 kts | 28° |
| 2026-04-29 18:57 | -8.72410 | -63.85317 | 3702 ft | 217 kts | 27° |
| 2026-04-29 18:57 | -8.71011 | -63.84636 | 4381 ft | 215 kts | 26° |
| 2026-04-29 18:58 | -8.69619 | -63.83963 | 5045 ft | 204 kts | 26° |
| 2026-04-29 18:58 | -8.68315 | -63.83331 | 5468 ft | 199 kts | 26° |
| 2026-04-29 18:58 | -8.67043 | -63.82713 | 5890 ft | 199 kts | 26° |
| 2026-04-29 18:58 | -8.65716 | -63.82069 | 6326 ft | 202 kts | 26° |
| 2026-04-29 18:59 | -8.64340 | -63.81401 | 6793 ft | 203 kts | 26° |
| 2026-04-29 18:59 | -8.62993 | -63.80747 | 7265 ft | 204 kts | 26° |
| 2026-04-29 18:59 | -8.61719 | -63.80128 | 7587 ft | 185 kts | 26° |
| 2026-04-29 18:59 | -8.60458 | -63.79516 | 7729 ft | 195 kts | 26° |
| 2026-04-29 19:00 | -8.59127 | -63.78869 | 8063 ft | 205 kts | 26° |
| 2026-04-29 19:00 | -8.57740 | -63.78173 | 8158 ft | 228 kts | 28° |
| 2026-04-29 19:00 | -8.56175 | -63.77319 | 8185 ft | 252 kts | 25° |
| 2026-04-29 19:00 | -8.54504 | -63.76537 | 8781 ft | 250 kts | 31° |
| 2026-04-29 19:01 | -8.52953 | -63.75621 | 9495 ft | 243 kts | 28° |
| 2026-04-29 19:01 | -8.51460 | -63.74756 | 10060 ft | 243 kts | 31° |
| 2026-04-29 19:01 | -8.49889 | -63.73826 | 10056 ft | 267 kts | 31° |
| 2026-04-29 19:01 | -8.48122 | -63.72781 | 10150 ft | 288 kts | 31° |
| 2026-04-29 19:02 | -8.46280 | -63.71692 | 10423 ft | 299 kts | 31° |
| 2026-04-29 19:02 | -8.45007 | -63.70939 | 10709 ft | 303 kts | 31° |
| 2026-04-29 19:02 | -8.42476 | -63.69443 | 11342 ft | 308 kts | 31° |
| 2026-04-29 19:02 | -8.40504 | -63.68278 | 11755 ft | 314 kts | 31° |
| 2026-04-29 19:03 | -8.38487 | -63.67086 | 12161 ft | 321 kts | 31° |
| 2026-04-29 19:03 | -8.36510 | -63.65918 | 12602 ft | 325 kts | 31° |
| 2026-04-29 19:03 | -8.34443 | -63.64697 | 13122 ft | 327 kts | 31° |
| 2026-04-29 19:03 | -8.32333 | -63.63450 | 13655 ft | 329 kts | 31° |
| 2026-04-29 19:04 | -8.30254 | -63.62222 | 14180 ft | 331 kts | 31° |
| 2026-04-29 19:04 | -8.28221 | -63.61021 | 14654 ft | 333 kts | 31° |
| 2026-04-29 19:04 | -8.26155 | -63.59816 | 15124 ft | 335 kts | 27° |
| 2026-04-29 19:04 | -8.23887 | -63.58903 | 15536 ft | 339 kts | 21° |
| 2026-04-29 19:05 | -8.21598 | -63.58073 | 15945 ft | 342 kts | 21° |
| 2026-04-29 19:05 | -8.19318 | -63.57243 | 16368 ft | 344 kts | 21° |
| 2026-04-29 19:05 | -8.17011 | -63.56403 | 16764 ft | 346 kts | 21° |
| 2026-04-29 19:05 | -8.14711 | -63.55565 | 17143 ft | 349 kts | 21° |
| 2026-04-29 19:06 | -8.12370 | -63.54711 | 17542 ft | 351 kts | 21° |
| 2026-04-29 19:06 | -8.10013 | -63.53853 | 17915 ft | 353 kts | 21° |
| 2026-04-29 19:06 | -8.05093 | -63.52060 | 18660 ft | 357 kts | 21° |
| 2026-04-29 19:07 | -8.02652 | -63.51171 | 19025 ft | 359 kts | 21° |
| 2026-04-29 19:07 | -8.01016 | -63.50575 | 19265 ft | 360 kts | 21° |
| 2026-04-29 19:07 | -7.97718 | -63.49374 | 19734 ft | 361 kts | 21° |
| 2026-04-29 19:07 | -7.95232 | -63.48469 | 20078 ft | 363 kts | 21° |
| 2026-04-29 19:08 | -7.92745 | -63.47564 | 20389 ft | 365 kts | 21° |
| 2026-04-29 19:08 | -7.90357 | -63.46694 | 20700 ft | 366 kts | 21° |
| 2026-04-29 19:08 | -7.87935 | -63.45813 | 21000 ft | 367 kts | 21° |
| 2026-04-29 19:08 | -7.85500 | -63.44926 | 21279 ft | 369 kts | 21° |
| 2026-04-29 19:09 | -7.83085 | -63.44047 | 21554 ft | 371 kts | 21° |
| 2026-04-29 19:09 | -7.80631 | -63.43154 | 21822 ft | 372 kts | 21° |
| 2026-04-29 19:09 | -7.78185 | -63.42265 | 22110 ft | 373 kts | 21° |
| 2026-04-29 19:09 | -7.75740 | -63.41376 | 22412 ft | 373 kts | 21° |
| 2026-04-29 19:10 | -7.73278 | -63.40480 | 22652 ft | 375 kts | 21° |
| 2026-04-29 19:10 | -7.70827 | -63.39589 | 22860 ft | 378 kts | 21° |
| 2026-04-29 19:10 | -7.68303 | -63.38671 | 23080 ft | 380 kts | 21° |
| 2026-04-29 19:10 | -7.65819 | -63.37768 | 23311 ft | 381 kts | 21° |
| 2026-04-29 19:11 | -7.63305 | -63.36854 | 23536 ft | 383 kts | 21° |
| 2026-04-29 19:11 | -7.60796 | -63.35942 | 23736 ft | 385 kts | 21° |
| 2026-04-29 19:11 | -7.58260 | -63.35020 | 23937 ft | 387 kts | 21° |
| 2026-04-29 19:11 | -7.55696 | -63.34089 | 24144 ft | 389 kts | 21° |
| 2026-04-29 19:12 | -7.53123 | -63.33154 | 24377 ft | 390 kts | 21° |
| 2026-04-29 19:12 | -7.50575 | -63.32228 | 24573 ft | 392 kts | 21° |
| 2026-04-29 19:12 | -7.47986 | -63.31287 | 24803 ft | 392 kts | 21° |
| 2026-04-29 19:12 | -7.46244 | -63.30654 | 24951 ft | 393 kts | 21° |
| 2026-04-29 19:13 | -7.42814 | -63.29409 | 25224 ft | 394 kts | 21° |
| 2026-04-29 19:13 | -7.40195 | -63.28458 | 25403 ft | 396 kts | 21° |
| 2026-04-29 19:13 | -7.37610 | -63.27519 | 25574 ft | 398 kts | 21° |
| 2026-04-29 19:13 | -7.34960 | -63.26557 | 25749 ft | 400 kts | 21° |
| 2026-04-29 19:14 | -7.32318 | -63.25599 | 25923 ft | 401 kts | 21° |
| 2026-04-29 19:14 | -7.29672 | -63.24638 | 26093 ft | 402 kts | 21° |
| 2026-04-29 19:14 | -7.27035 | -63.23681 | 26251 ft | 403 kts | 20° |
| 2026-04-29 19:14 | -7.24371 | -63.22715 | 26404 ft | 404 kts | 21° |
| 2026-04-29 19:15 | -7.21671 | -63.21735 | 26563 ft | 405 kts | 21° |
| 2026-04-29 19:15 | -7.18995 | -63.20764 | 26737 ft | 406 kts | 21° |
| 2026-04-29 19:15 | -7.16325 | -63.19796 | 26872 ft | 407 kts | 21° |
| 2026-04-29 19:15 | -7.13626 | -63.18817 | 27026 ft | 408 kts | 21° |
| 2026-04-29 19:16 | -7.10931 | -63.17839 | 27167 ft | 409 kts | 21° |
| 2026-04-29 19:16 | -7.08240 | -63.16864 | 27309 ft | 410 kts | 21° |
| 2026-04-29 19:16 | -7.05544 | -63.15886 | 27462 ft | 410 kts | 21° |
| 2026-04-29 19:16 | -7.02839 | -63.14906 | 27583 ft | 411 kts | 21° |
| 2026-04-29 19:17 | -7.00167 | -63.13938 | 27722 ft | 412 kts | 21° |
| 2026-04-29 19:17 | -6.97442 | -63.12950 | 27831 ft | 413 kts | 21° |
| 2026-04-29 19:17 | -6.94710 | -63.11961 | 27930 ft | 415 kts | 21° |
| 2026-04-29 19:18 | -6.89218 | -63.09971 | 28124 ft | 418 kts | 21° |
| 2026-04-29 19:18 | -6.83699 | -63.07972 | 28386 ft | 419 kts | 21° |
| 2026-04-29 19:18 | -6.80951 | -63.06976 | 28510 ft | 419 kts | 20° |
| 2026-04-29 19:19 | -6.78190 | -63.05977 | 28620 ft | 420 kts | 21° |
| 2026-04-29 19:19 | -6.75438 | -63.04981 | 28735 ft | 421 kts | 21° |
| 2026-04-29 19:19 | -6.72665 | -63.03976 | 28875 ft | 421 kts | 21° |
| 2026-04-29 19:19 | -6.69905 | -63.02978 | 28995 ft | 422 kts | 21° |
| 2026-04-29 19:20 | -6.67105 | -63.01964 | 29148 ft | 421 kts | 20° |
| 2026-04-29 19:20 | -6.64365 | -63.00973 | 29250 ft | 422 kts | 20° |
| 2026-04-29 19:20 | -6.61557 | -62.99957 | 29358 ft | 423 kts | 21° |
| 2026-04-29 19:21 | -6.56009 | -62.97950 | 29519 ft | 425 kts | 20° |
| 2026-04-29 19:21 | -6.50397 | -62.95921 | 29702 ft | 427 kts | 20° |
| 2026-04-29 19:21 | -6.47485 | -62.94867 | 29829 ft | 428 kts | 20° |
| 2026-04-29 19:22 | -6.44635 | -62.93837 | 29964 ft | 427 kts | 20° |
| 2026-04-29 19:22 | -6.41827 | -62.92822 | 30098 ft | 427 kts | 20° |
| 2026-04-29 19:22 | -6.39027 | -62.91810 | 30225 ft | 428 kts | 20° |
| 2026-04-29 19:23 | -6.33371 | -62.89766 | 30422 ft | 429 kts | 20° |
| 2026-04-29 19:23 | -6.30547 | -62.88745 | 30544 ft | 429 kts | 20° |
| 2026-04-29 19:23 | -6.27746 | -62.87733 | 30609 ft | 430 kts | 20° |
| 2026-04-29 19:24 | -6.22097 | -62.85692 | 30753 ft | 432 kts | 20° |
| 2026-04-29 19:24 | -6.16397 | -62.83634 | 30815 ft | 435 kts | 21° |
| 2026-04-29 19:25 | -6.10648 | -62.81558 | 30817 ft | 440 kts | 21° |
| 2026-04-29 19:25 | -6.04821 | -62.79454 | 30808 ft | 445 kts | 20° |
| 2026-04-29 19:26 | -5.98929 | -62.77328 | 30809 ft | 449 kts | 20° |
| 2026-04-29 19:26 | -5.93025 | -62.75198 | 30797 ft | 453 kts | 20° |
| 2026-04-29 19:27 | -5.87045 | -62.73040 | 30797 ft | 455 kts | 21° |
| 2026-04-29 19:27 | -5.81046 | -62.70877 | 30799 ft | 458 kts | 21° |
| 2026-04-29 19:28 | -5.74989 | -62.68693 | 30803 ft | 460 kts | 21° |
| 2026-04-29 19:28 | -5.68943 | -62.66513 | 30802 ft | 462 kts | 20° |
| 2026-04-29 19:29 | -5.62849 | -62.64317 | 30797 ft | 463 kts | 20° |
| 2026-04-29 19:29 | -5.56758 | -62.62122 | 30797 ft | 464 kts | 20° |
| 2026-04-29 19:30 | -5.50634 | -62.59916 | 30793 ft | 463 kts | 20° |
| 2026-04-29 19:30 | -5.44560 | -62.57728 | 30793 ft | 463 kts | 20° |
| 2026-04-29 19:31 | -5.38508 | -62.55549 | 30791 ft | 461 kts | 20° |
| 2026-04-29 19:31 | -5.32429 | -62.53360 | 30793 ft | 463 kts | 20° |
| 2026-04-29 19:32 | -5.26354 | -62.51173 | 30801 ft | 462 kts | 20° |
| 2026-04-29 19:32 | -5.20251 | -62.48977 | 30790 ft | 462 kts | 20° |
| 2026-04-29 19:33 | -5.14214 | -62.46805 | 30790 ft | 461 kts | 20° |
| 2026-04-29 19:33 | -5.08150 | -62.44585 | 30794 ft | 462 kts | 21° |
| 2026-04-29 19:34 | -5.02101 | -62.42349 | 30795 ft | 461 kts | 21° |
| 2026-04-29 19:34 | -4.96048 | -62.40111 | 30791 ft | 461 kts | 21° |
| 2026-04-29 19:35 | -4.89994 | -62.37875 | 30785 ft | 463 kts | 21° |
| 2026-04-29 19:35 | -4.83958 | -62.35645 | 30795 ft | 462 kts | 21° |
| 2026-04-29 19:36 | -4.77923 | -62.33416 | 30796 ft | 462 kts | 21° |
| 2026-04-29 19:36 | -4.71866 | -62.31179 | 30798 ft | 461 kts | 21° |
| 2026-04-29 19:37 | -4.65848 | -62.28958 | 30800 ft | 461 kts | 21° |
| 2026-04-29 19:37 | -4.59799 | -62.26724 | 30792 ft | 461 kts | 21° |
| 2026-04-29 19:38 | -4.53767 | -62.24498 | 30781 ft | 461 kts | 21° |
| 2026-04-29 19:38 | -4.47709 | -62.22263 | 30787 ft | 461 kts | 21° |
| 2026-04-29 19:39 | -4.41689 | -62.20042 | 30795 ft | 462 kts | 21° |
| 2026-04-29 19:39 | -4.35637 | -62.17809 | 30774 ft | 462 kts | 21° |
| 2026-04-29 19:40 | -4.29587 | -62.15578 | 30791 ft | 462 kts | 21° |
| 2026-04-29 19:40 | -4.23542 | -62.13349 | 30787 ft | 461 kts | 21° |
| 2026-04-29 19:41 | -4.17531 | -62.11132 | 30787 ft | 461 kts | 21° |
| 2026-04-29 19:41 | -4.11518 | -62.08916 | 30787 ft | 461 kts | 21° |
| 2026-04-29 19:42 | -4.05460 | -62.06683 | 30787 ft | 461 kts | 21° |
| 2026-04-29 19:42 | -3.99397 | -62.04449 | 30786 ft | 462 kts | 21° |
| 2026-04-29 19:43 | -3.93374 | -62.02230 | 30774 ft | 462 kts | 21° |
| 2026-04-29 19:43 | -3.87325 | -62.00001 | 30788 ft | 461 kts | 21° |
| 2026-04-29 19:44 | -3.81297 | -61.97781 | 30790 ft | 461 kts | 21° |
| 2026-04-29 19:44 | -3.75264 | -61.95559 | 30787 ft | 462 kts | 21° |
| 2026-04-29 19:45 | -3.69224 | -61.93335 | 30788 ft | 463 kts | 21° |
| 2026-04-29 19:45 | -3.63181 | -61.91110 | 30773 ft | 460 kts | 21° |
| 2026-04-29 19:46 | -3.57120 | -61.88879 | 30782 ft | 461 kts | 21° |
| 2026-04-29 19:46 | -3.51113 | -61.86668 | 30778 ft | 460 kts | 20° |
| 2026-04-29 19:47 | -3.45100 | -61.84455 | 30778 ft | 461 kts | 20° |
| 2026-04-29 19:47 | -3.39044 | -61.82226 | 30782 ft | 461 kts | 20° |
| 2026-04-29 19:48 | -3.33009 | -61.80006 | 30786 ft | 462 kts | 20° |
| 2026-04-29 19:48 | -3.27000 | -61.77795 | 30786 ft | 460 kts | 20° |
| 2026-04-29 19:49 | -3.20986 | -61.75583 | 30787 ft | 460 kts | 20° |
| 2026-04-29 19:49 | -3.14948 | -61.73362 | 30788 ft | 461 kts | 20° |
| 2026-04-29 19:50 | -3.08894 | -61.71136 | 30788 ft | 461 kts | 20° |
| 2026-04-29 19:50 | -3.02875 | -61.68923 | 30786 ft | 461 kts | 20° |
| 2026-04-29 19:51 | -2.96850 | -61.66708 | 30784 ft | 462 kts | 20° |
| 2026-04-29 19:51 | -2.90807 | -61.64486 | 30783 ft | 461 kts | 20° |
| 2026-04-29 19:52 | -2.84793 | -61.62276 | 30786 ft | 460 kts | 20° |
| 2026-04-29 19:52 | -2.78723 | -61.60045 | 30785 ft | 461 kts | 20° |
| 2026-04-29 19:53 | -2.72720 | -61.57839 | 30786 ft | 459 kts | 20° |
| 2026-04-29 19:53 | -2.66683 | -61.55621 | 30785 ft | 461 kts | 20° |
| 2026-04-29 19:54 | -2.57671 | -61.52310 | 30774 ft | 459 kts | 20° |
| 2026-04-29 19:54 | -2.51650 | -61.50098 | 30786 ft | 461 kts | 20° |
| 2026-04-29 19:55 | -2.45611 | -61.47880 | 30786 ft | 460 kts | 20° |
| 2026-04-29 19:55 | -2.39579 | -61.45664 | 30780 ft | 460 kts | 20° |
| 2026-04-29 19:56 | -2.33572 | -61.43459 | 30794 ft | 461 kts | 20° |
| 2026-04-29 19:56 | -2.27550 | -61.41247 | 30804 ft | 460 kts | 20° |
| 2026-04-29 19:57 | -2.22519 | -61.39400 | 30805 ft | 459 kts | 20° |
| 2026-04-29 19:57 | -2.15479 | -61.36815 | 30805 ft | 461 kts | 20° |
| 2026-04-29 19:58 | -2.09467 | -61.34608 | 30813 ft | 461 kts | 20° |
| 2026-04-29 19:58 | -2.03407 | -61.32383 | 30805 ft | 460 kts | 20° |
| 2026-04-29 19:59 | -1.97374 | -61.30169 | 30798 ft | 460 kts | 20° |
| 2026-04-29 19:59 | -1.91390 | -61.27973 | 30800 ft | 459 kts | 20° |
| 2026-04-29 20:00 | -1.85347 | -61.25755 | 30800 ft | 460 kts | 20° |
| 2026-04-29 20:00 | -1.79351 | -61.23555 | 30798 ft | 460 kts | 20° |
| 2026-04-29 20:01 | -1.73286 | -61.21329 | 30803 ft | 460 kts | 20° |
| 2026-04-29 20:01 | -1.67282 | -61.19126 | 30798 ft | 459 kts | 20° |
| 2026-04-29 20:02 | -1.61258 | -61.16979 | 30793 ft | 459 kts | 15° |
| 2026-04-29 20:02 | -1.56001 | -61.16057 | 30794 ft | 459 kts | 8° |
| 2026-04-29 20:03 | -1.48590 | -61.15000 | 30793 ft | 459 kts | 8° |
| 2026-04-29 20:03 | -1.42277 | -61.14095 | 30793 ft | 459 kts | 8° |
| 2026-04-29 20:04 | -1.35902 | -61.13181 | 30794 ft | 459 kts | 8° |
| 2026-04-29 20:04 | -1.29590 | -61.12276 | 30794 ft | 459 kts | 8° |
| 2026-04-29 20:05 | -1.23254 | -61.11368 | 30794 ft | 459 kts | 8° |
| 2026-04-29 20:05 | -1.16902 | -61.10457 | 30792 ft | 458 kts | 8° |
| 2026-04-29 20:06 | -1.10576 | -61.09550 | 30791 ft | 457 kts | 8° |
| 2026-04-29 20:06 | -1.04264 | -61.08645 | 30793 ft | 458 kts | 8° |
| 2026-04-29 20:07 | -0.97929 | -61.07737 | 30793 ft | 458 kts | 8° |
| 2026-04-29 20:07 | -0.91590 | -61.06828 | 30789 ft | 460 kts | 8° |
| 2026-04-29 20:08 | -0.86306 | -61.06071 | 30796 ft | 460 kts | 8° |
| 2026-04-29 20:08 | -0.78930 | -61.05014 | 30807 ft | 458 kts | 8° |
| 2026-04-29 20:09 | -0.72583 | -61.04104 | 30792 ft | 458 kts | 8° |
| 2026-04-29 20:09 | -0.66250 | -61.03196 | 30788 ft | 459 kts | 8° |
| 2026-04-29 20:10 | -0.59910 | -61.02288 | 30785 ft | 459 kts | 8° |
| 2026-04-29 20:10 | -0.53557 | -61.01378 | 30786 ft | 459 kts | 8° |
| 2026-04-29 20:11 | -0.47251 | -61.00473 | 30781 ft | 459 kts | 8° |
| 2026-04-29 20:11 | -0.40858 | -60.99558 | 30782 ft | 459 kts | 8° |
| 2026-04-29 20:12 | -0.34525 | -60.98650 | 30771 ft | 459 kts | 8° |
| 2026-04-29 20:12 | -0.28206 | -60.97744 | 30784 ft | 459 kts | 8° |
| 2026-04-29 20:13 | -0.22896 | -60.96983 | 30794 ft | 458 kts | 8° |
| 2026-04-29 20:13 | -0.15527 | -60.95927 | 30790 ft | 459 kts | 8° |
| 2026-04-29 20:14 | -0.09194 | -60.95020 | 30796 ft | 460 kts | 8° |
| 2026-04-29 20:14 | -0.02801 | -60.94104 | 30796 ft | 460 kts | 8° |
| 2026-04-29 20:15 | 0.03553 | -60.93193 | 30797 ft | 460 kts | 8° |
| 2026-04-29 20:15 | 0.09916 | -60.92281 | 30796 ft | 458 kts | 8° |
| 2026-04-29 20:16 | 0.16315 | -60.91364 | 30792 ft | 459 kts | 8° |
| 2026-04-29 20:16 | 0.22650 | -60.90456 | 30785 ft | 458 kts | 8° |
| 2026-04-29 20:17 | 0.29003 | -60.89546 | 30783 ft | 458 kts | 8° |
| 2026-04-29 20:17 | 0.35347 | -60.88637 | 30786 ft | 459 kts | 8° |
| 2026-04-29 20:18 | 0.41755 | -60.87719 | 30785 ft | 459 kts | 8° |
| 2026-04-29 20:18 | 0.48092 | -60.86810 | 30788 ft | 459 kts | 8° |
| 2026-04-29 20:19 | 0.54495 | -60.85893 | 30786 ft | 458 kts | 8° |
| 2026-04-29 20:19 | 0.60844 | -60.84983 | 30783 ft | 458 kts | 8° |
| 2026-04-29 20:20 | 0.67194 | -60.84072 | 30780 ft | 457 kts | 8° |
| 2026-04-29 20:20 | 0.73483 | -60.83171 | 30781 ft | 457 kts | 8° |
| 2026-04-29 20:21 | 0.79806 | -60.82265 | 30779 ft | 457 kts | 8° |
| 2026-04-29 20:21 | 0.86113 | -60.81361 | 30780 ft | 458 kts | 8° |
| 2026-04-29 20:22 | 0.92442 | -60.80454 | 30781 ft | 457 kts | 8° |
| 2026-04-29 20:22 | 0.98753 | -60.79549 | 30777 ft | 456 kts | 8° |
| 2026-04-29 20:23 | 1.05080 | -60.78642 | 30764 ft | 454 kts | 8° |
| 2026-04-29 20:23 | 1.11245 | -60.77758 | 30741 ft | 452 kts | 8° |
| 2026-04-29 20:24 | 1.17499 | -60.76862 | 30724 ft | 452 kts | 8° |
| 2026-04-29 20:24 | 1.23738 | -60.75965 | 30600 ft | 438 kts | 8° |
| 2026-04-29 20:25 | 1.26783 | -60.75530 | 30044 ft | 440 kts | 8° |
| 2026-04-29 20:25 | 1.29882 | -60.75087 | 29553 ft | 436 kts | 8° |
| 2026-04-29 20:25 | 1.32879 | -60.74657 | 29078 ft | 429 kts | 8° |
| 2026-04-29 20:25 | 1.35899 | -60.74224 | 28594 ft | 424 kts | 8° |
| 2026-04-29 20:26 | 1.38838 | -60.73803 | 28132 ft | 423 kts | 8° |
| 2026-04-29 20:26 | 1.41804 | -60.73378 | 27658 ft | 421 kts | 9° |
| 2026-04-29 20:26 | 1.44797 | -60.72948 | 27176 ft | 420 kts | 9° |
| 2026-04-29 20:26 | 1.47784 | -60.72520 | 26694 ft | 419 kts | 9° |
| 2026-04-29 20:27 | 1.50710 | -60.72101 | 26224 ft | 416 kts | 9° |
| 2026-04-29 20:27 | 1.52681 | -60.71818 | 25907 ft | 415 kts | 10° |
| 2026-04-29 20:27 | 1.56592 | -60.71257 | 25279 ft | 413 kts | 10° |
| 2026-04-29 20:27 | 1.59434 | -60.70850 | 24822 ft | 411 kts | 11° |
| 2026-04-29 20:28 | 1.62279 | -60.70441 | 24365 ft | 409 kts | 11° |
| 2026-04-29 20:28 | 1.65104 | -60.70036 | 23912 ft | 408 kts | 11° |
| 2026-04-29 20:28 | 1.67915 | -60.69633 | 23461 ft | 407 kts | 12° |
| 2026-04-29 20:28 | 1.70709 | -60.69233 | 23013 ft | 405 kts | 12° |
| 2026-04-29 20:29 | 1.73483 | -60.68835 | 22568 ft | 403 kts | 12° |
| 2026-04-29 20:29 | 1.76249 | -60.68438 | 22126 ft | 400 kts | 12° |
| 2026-04-29 20:29 | 1.79003 | -60.68042 | 21694 ft | 398 kts | 12° |
| 2026-04-29 20:29 | 1.81745 | -60.67650 | 21253 ft | 395 kts | 13° |
| 2026-04-29 20:30 | 1.84477 | -60.67257 | 20814 ft | 392 kts | 12° |
| 2026-04-29 20:30 | 1.87184 | -60.66868 | 20377 ft | 390 kts | 12° |
| 2026-04-29 20:30 | 1.89832 | -60.66489 | 19951 ft | 387 kts | 12° |
| 2026-04-29 20:30 | 1.92502 | -60.66106 | 19521 ft | 385 kts | 12° |
| 2026-04-29 20:31 | 1.95169 | -60.65723 | 19092 ft | 382 kts | 12° |
| 2026-04-29 20:31 | 1.97798 | -60.65346 | 18669 ft | 379 kts | 11° |
| 2026-04-29 20:31 | 2.00382 | -60.64975 | 18253 ft | 376 kts | 11° |
| 2026-04-29 20:31 | 2.03015 | -60.64597 | 17827 ft | 372 kts | 11° |
| 2026-04-29 20:32 | 2.05649 | -60.64219 | 17401 ft | 370 kts | 11° |
| 2026-04-29 20:32 | 2.08311 | -60.63837 | 16965 ft | 368 kts | 11° |
| 2026-04-29 20:32 | 2.10967 | -60.63456 | 16535 ft | 366 kts | 11° |
| 2026-04-29 20:32 | 2.13519 | -60.63090 | 16123 ft | 363 kts | 11° |
| 2026-04-29 20:33 | 2.16080 | -60.62722 | 15712 ft | 360 kts | 11° |
| 2026-04-29 20:33 | 2.18633 | -60.62349 | 15298 ft | 357 kts | 13° |
| 2026-04-29 20:33 | 2.21158 | -60.61820 | 14891 ft | 354 kts | 14° |
| 2026-04-29 20:33 | 2.23639 | -60.61290 | 14490 ft | 352 kts | 14° |
| 2026-04-29 20:34 | 2.26114 | -60.60764 | 14092 ft | 350 kts | 14° |
| 2026-04-29 20:34 | 2.28574 | -60.60242 | 13693 ft | 348 kts | 14° |
| 2026-04-29 20:34 | 2.31034 | -60.59720 | 13294 ft | 346 kts | 14° |
| 2026-04-29 20:34 | 2.33453 | -60.59206 | 12903 ft | 344 kts | 14° |
| 2026-04-29 20:35 | 2.35898 | -60.58688 | 12509 ft | 341 kts | 14° |
| 2026-04-29 20:35 | 2.38351 | -60.58167 | 12110 ft | 339 kts | 14° |
| 2026-04-29 20:35 | 2.40766 | -60.57655 | 11716 ft | 337 kts | 14° |
| 2026-04-29 20:35 | 2.43058 | -60.57168 | 11336 ft | 331 kts | 14° |
| 2026-04-29 20:36 | 2.45387 | -60.56674 | 10959 ft | 322 kts | 14° |
| 2026-04-29 20:36 | 2.47653 | -60.56193 | 10591 ft | 313 kts | 14° |
| 2026-04-29 20:36 | 2.49848 | -60.55727 | 10234 ft | 304 kts | 14° |
| 2026-04-29 20:36 | 2.51977 | -60.55276 | 9888 ft | 296 kts | 14° |
| 2026-04-29 20:37 | 2.54067 | -60.54832 | 9547 ft | 290 kts | 14° |
| 2026-04-29 20:37 | 2.56111 | -60.54397 | 9218 ft | 287 kts | 14° |
| 2026-04-29 20:37 | 2.58182 | -60.53957 | 8883 ft | 286 kts | 14° |
| 2026-04-29 20:37 | 2.60188 | -60.53532 | 8555 ft | 285 kts | 14° |
| 2026-04-29 20:38 | 2.62277 | -60.53088 | 8211 ft | 283 kts | 14° |
| 2026-04-29 20:38 | 2.64333 | -60.52652 | 7862 ft | 273 kts | 14° |
| 2026-04-29 20:38 | 2.66301 | -60.52234 | 7535 ft | 264 kts | 14° |
| 2026-04-29 20:38 | 2.68147 | -60.51842 | 7234 ft | 255 kts | 14° |
| 2026-04-29 20:39 | 2.70028 | -60.51443 | 6928 ft | 247 kts | 14° |
| 2026-04-29 20:39 | 2.71809 | -60.51065 | 6634 ft | 239 kts | 14° |
| 2026-04-29 20:39 | 2.73489 | -60.50708 | 6360 ft | 232 kts | 14° |
| 2026-04-29 20:39 | 2.75139 | -60.50357 | 6090 ft | 225 kts | 14° |
| 2026-04-29 20:40 | 2.76806 | -60.50003 | 5820 ft | 219 kts | 14° |
| 2026-04-29 20:40 | 2.78416 | -60.49662 | 5557 ft | 214 kts | 14° |
| 2026-04-29 20:40 | 2.79931 | -60.49340 | 5319 ft | 213 kts | 14° |
| 2026-04-29 20:40 | 2.81513 | -60.49004 | 5068 ft | 215 kts | 14° |
| 2026-04-29 20:41 | 2.83106 | -60.48669 | 4806 ft | 215 kts | 10° |
| 2026-04-29 20:41 | 2.84684 | -60.48963 | 4613 ft | 219 kts | 336° |
| 2026-04-29 20:41 | 2.86116 | -60.49674 | 4382 ft | 222 kts | 335° |
| 2026-04-29 20:41 | 2.87585 | -60.50415 | 4197 ft | 219 kts | 335° |
| 2026-04-29 20:42 | 2.89020 | -60.51145 | 4184 ft | 218 kts | 335° |
| 2026-04-29 20:42 | 2.90459 | -60.51878 | 4182 ft | 220 kts | 335° |
| 2026-04-29 20:42 | 2.91698 | -60.52834 | 4101 ft | 218 kts | 302° |
| 2026-04-29 20:42 | 2.91971 | -60.54271 | 3917 ft | 197 kts | 254° |
| 2026-04-29 20:43 | 2.91466 | -60.55481 | 3864 ft | 170 kts | 244° |
| 2026-04-29 20:43 | 2.90928 | -60.56597 | 3735 ft | 182 kts | 244° |
| 2026-04-29 20:43 | 2.90336 | -60.57794 | 3336 ft | 186 kts | 243° |
| 2026-04-29 20:43 | 2.89710 | -60.59044 | 2919 ft | 189 kts | 243° |
| 2026-04-29 20:44 | 2.89077 | -60.60294 | 2506 ft | 191 kts | 242° |
| 2026-04-29 20:44 | 2.88462 | -60.61504 | 2110 ft | 191 kts | 242° |
| 2026-04-29 20:44 | 2.87867 | -60.62671 | 1936 ft | 179 kts | 242° |
| 2026-04-29 20:44 | 2.87258 | -60.63862 | 1311 ft | 195 kts | 243° |
| 2026-04-29 20:45 | 2.86637 | -60.65076 | 915 ft | 189 kts | 244° |
| 2026-04-29 20:45 | 2.86077 | -60.66179 | 677 ft | 168 kts | 244° |
| 2026-04-29 20:45 | 2.85567 | -60.67170 | 440 ft | 150 kts | 245° |
| 2026-04-29 20:45 | 2.85113 | -60.68066 | 271 ft | 134 kts | 248° |
| 2026-04-29 20:46 | 2.84778 | -60.68722 | 269 ft | 71 kts | 245° |
| 2026-04-29 20:46 | 2.84660 | -60.68967 | 269 ft | 17 kts | 240° |
| 2026-04-29 20:46 | 2.84580 | -60.69123 | 269 ft | 32 kts | 242° |
| 2026-04-29 20:46 | 2.84497 | -60.69272 | 269 ft | 13 kts | 227° |
| 2026-04-29 20:47 | 2.84416 | -60.69284 | 271 ft | 8 kts | 160° |
| 2026-04-29 20:47 | 2.84372 | -60.69268 | 272 ft | 4 kts | 155° |
| 2026-04-29 20:47 | 2.84344 | -60.69257 | 272 ft | 3 kts | 181° |